sensor_id;sensor_type;location;lat;lon;timestamp;temperature;humidity
15099;DHT22;33900;53.640;9.942;2023-02-28T00:00:01;7.50;80.50
15099;DHT22;33900;53.640;9.942;2023-02-28T00:02:30;7.50;80.50
15099;DHT22;33900;53.640;9.942;2023-02-28T00:04:55;7.50;80.50
15099;DHT22;33900;53.640;9.942;2023-02-28T00:07:27;7.40;80.50
15099;DHT22;33900;53.640;9.942;2023-02-28T00:09:53;7.40;80.60
15099;DHT22;33900;53.640;9.942;2023-02-28T00:12:19;7.40;80.60
15099;DHT22;33900;53.640;9.942;2023-02-28T00:14:44;7.40;80.60
15099;DHT22;33900;53.640;9.942;2023-02-28T00:17:10;7.40;80.70
15099;DHT22;33900;53.640;9.942;2023-02-28T00:19:35;7.30;80.70
15099;DHT22;33900;53.640;9.942;2023-02-28T00:22:03;7.30;80.60
15099;DHT22;33900;53.640;9.942;2023-02-28T00:24:29;7.30;80.70
15099;DHT22;33900;53.640;9.942;2023-02-28T00:26:54;7.30;80.70
15099;DHT22;33900;53.640;9.942;2023-02-28T00:29:20;7.30;80.80
15099;DHT22;33900;53.640;9.942;2023-02-28T00:31:46;7.20;80.70
15099;DHT22;33900;53.640;9.942;2023-02-28T00:34:11;7.20;80.80
15099;DHT22;33900;53.640;9.942;2023-02-28T00:36:39;7.20;80.80
15099;DHT22;33900;53.640;9.942;2023-02-28T00:39:06;7.20;80.80
15099;DHT22;33900;53.640;9.942;2023-02-28T00:41:31;7.20;81.00
15099;DHT22;33900;53.640;9.942;2023-02-28T00:43:57;7.20;80.80
15099;DHT22;33900;53.640;9.942;2023-02-28T00:46:23;7.10;80.80
15099;DHT22;33900;53.640;9.942;2023-02-28T00:48:49;7.10;80.80
15099;DHT22;33900;53.640;9.942;2023-02-28T00:51:15;7.10;80.80
15099;DHT22;33900;53.640;9.942;2023-02-28T00:53:40;7.10;80.90
15099;DHT22;33900;53.640;9.942;2023-02-28T00:56:06;7.10;80.90
15099;DHT22;33900;53.640;9.942;2023-02-28T00:58:32;7.00;80.90
15099;DHT22;33900;53.640;9.942;2023-02-28T01:00:57;7.00;80.90
15099;DHT22;33900;53.640;9.942;2023-02-28T01:03:23;7.00;80.90
15099;DHT22;33900;53.640;9.942;2023-02-28T01:05:49;7.00;81.00
15099;DHT22;33900;53.640;9.942;2023-02-28T01:08:16;7.00;81.00
15099;DHT22;33900;53.640;9.942;2023-02-28T01:10:41;7.00;81.00
15099;DHT22;33900;53.640;9.942;2023-02-28T01:13:07;6.90;80.90
15099;DHT22;33900;53.640;9.942;2023-02-28T01:15:36;7.00;81.00
15099;DHT22;33900;53.640;9.942;2023-02-28T01:18:04;6.90;80.90
15099;DHT22;33900;53.640;9.942;2023-02-28T01:20:30;6.90;80.90
15099;DHT22;33900;53.640;9.942;2023-02-28T01:22:56;6.90;80.90
15099;DHT22;33900;53.640;9.942;2023-02-28T01:25:21;6.90;81.00
15099;DHT22;33900;53.640;9.942;2023-02-28T01:27:47;6.90;81.00
15099;DHT22;33900;53.640;9.942;2023-02-28T01:30:12;6.90;81.10
15099;DHT22;33900;53.640;9.942;2023-02-28T01:32:38;6.90;81.10
15099;DHT22;33900;53.640;9.942;2023-02-28T01:35:04;6.80;81.20
15099;DHT22;33900;53.640;9.942;2023-02-28T01:37:30;6.80;81.20
15099;DHT22;33900;53.640;9.942;2023-02-28T01:39:55;6.80;81.30
15099;DHT22;33900;53.640;9.942;2023-02-28T01:42:21;6.80;81.30
15099;DHT22;33900;53.640;9.942;2023-02-28T01:47:27;6.80;81.30
15099;DHT22;33900;53.640;9.942;2023-02-28T01:49:56;6.80;81.30
15099;DHT22;33900;53.640;9.942;2023-02-28T01:52:22;6.80;81.30
15099;DHT22;33900;53.640;9.942;2023-02-28T01:54:49;6.80;81.30
15099;DHT22;33900;53.640;9.942;2023-02-28T01:57:17;6.80;81.30
15099;DHT22;33900;53.640;9.942;2023-02-28T01:59:45;6.80;81.30
15099;DHT22;33900;53.640;9.942;2023-02-28T02:02:16;6.70;81.20
15099;DHT22;33900;53.640;9.942;2023-02-28T02:04:46;6.70;81.30
15099;DHT22;33900;53.640;9.942;2023-02-28T02:07:15;6.70;81.30
15099;DHT22;33900;53.640;9.942;2023-02-28T02:09:44;6.70;81.30
15099;DHT22;33900;53.640;9.942;2023-02-28T02:12:29;6.60;81.30
15099;DHT22;33900;53.640;9.942;2023-02-28T02:15:00;6.70;81.40
15099;DHT22;33900;53.640;9.942;2023-02-28T02:17:42;6.70;81.40
15099;DHT22;33900;53.640;9.942;2023-02-28T02:25:26;6.70;81.40
15099;DHT22;33900;53.640;9.942;2023-02-28T02:28:04;6.70;81.40
15099;DHT22;33900;53.640;9.942;2023-02-28T02:35:54;6.70;81.40
15099;DHT22;33900;53.640;9.942;2023-02-28T02:38:32;6.70;81.40
15099;DHT22;33900;53.640;9.942;2023-02-28T02:41:16;6.70;81.40
15099;DHT22;33900;53.640;9.942;2023-02-28T02:43:46;6.70;81.50
15099;DHT22;33900;53.640;9.942;2023-02-28T02:48:44;6.70;81.50
15099;DHT22;33900;53.640;9.942;2023-02-28T02:51:16;6.70;81.50
15099;DHT22;33900;53.640;9.942;2023-02-28T02:53:45;6.60;81.50
15099;DHT22;33900;53.640;9.942;2023-02-28T02:56:15;6.60;81.50
15099;DHT22;33900;53.640;9.942;2023-02-28T02:58:42;6.70;81.60
15099;DHT22;33900;53.640;9.942;2023-02-28T03:01:11;6.60;81.50
15099;DHT22;33900;53.640;9.942;2023-02-28T03:03:37;6.60;81.50
15099;DHT22;33900;53.640;9.942;2023-02-28T03:06:03;6.60;81.50
15099;DHT22;33900;53.640;9.942;2023-02-28T03:08:33;6.60;81.60
15099;DHT22;33900;53.640;9.942;2023-02-28T03:10:59;6.50;81.50
15099;DHT22;33900;53.640;9.942;2023-02-28T03:13:38;6.50;81.50
15099;DHT22;33900;53.640;9.942;2023-02-28T03:16:28;6.50;81.50
15099;DHT22;33900;53.640;9.942;2023-02-28T03:21:34;6.40;82.30
15099;DHT22;33900;53.640;9.942;2023-02-28T03:24:08;6.40;81.60
15099;DHT22;33900;53.640;9.942;2023-02-28T03:26:37;6.40;81.60
15099;DHT22;33900;53.640;9.942;2023-02-28T03:29:15;6.40;81.60
15099;DHT22;33900;53.640;9.942;2023-02-28T03:31:53;6.40;81.70
15099;DHT22;33900;53.640;9.942;2023-02-28T03:34:27;6.30;81.60
15099;DHT22;33900;53.640;9.942;2023-02-28T03:36:55;6.40;81.70
15099;DHT22;33900;53.640;9.942;2023-02-28T03:39:31;6.40;81.70
15099;DHT22;33900;53.640;9.942;2023-02-28T03:42:44;6.30;81.60
15099;DHT22;33900;53.640;9.942;2023-02-28T03:47:39;6.30;81.70
15099;DHT22;33900;53.640;9.942;2023-02-28T03:53:01;6.30;81.70
15099;DHT22;33900;53.640;9.942;2023-02-28T03:55:31;6.30;81.80
15099;DHT22;33900;53.640;9.942;2023-02-28T03:58:01;6.20;81.70
15099;DHT22;33900;53.640;9.942;2023-02-28T04:00:27;6.20;81.70
15099;DHT22;33900;53.640;9.942;2023-02-28T04:02:54;6.20;81.70
15099;DHT22;33900;53.640;9.942;2023-02-28T04:05:21;6.10;81.70
15099;DHT22;33900;53.640;9.942;2023-02-28T04:07:46;6.10;81.70
15099;DHT22;33900;53.640;9.942;2023-02-28T04:10:13;6.00;81.70
15099;DHT22;33900;53.640;9.942;2023-02-28T04:12:39;6.00;81.70
15099;DHT22;33900;53.640;9.942;2023-02-28T04:15:05;6.00;82.50
15099;DHT22;33900;53.640;9.942;2023-02-28T04:17:32;5.90;81.70
15099;DHT22;33900;53.640;9.942;2023-02-28T04:19:58;5.90;81.70
15099;DHT22;33900;53.640;9.942;2023-02-28T04:22:24;5.90;81.80
15099;DHT22;33900;53.640;9.942;2023-02-28T04:24:51;5.80;81.70
15099;DHT22;33900;53.640;9.942;2023-02-28T04:27:20;5.80;81.80
15099;DHT22;33900;53.640;9.942;2023-02-28T04:29:45;5.70;81.70
15099;DHT22;33900;53.640;9.942;2023-02-28T04:32:11;5.70;81.70
15099;DHT22;33900;53.640;9.942;2023-02-28T04:34:37;5.70;81.80
15099;DHT22;33900;53.640;9.942;2023-02-28T04:37:03;5.60;81.80
15099;DHT22;33900;53.640;9.942;2023-02-28T04:39:28;5.60;81.80
15099;DHT22;33900;53.640;9.942;2023-02-28T04:41:55;5.60;81.80
15099;DHT22;33900;53.640;9.942;2023-02-28T04:44:21;5.50;81.80
15099;DHT22;33900;53.640;9.942;2023-02-28T04:46:47;5.50;81.80
15099;DHT22;33900;53.640;9.942;2023-02-28T04:49:13;5.40;81.80
15099;DHT22;33900;53.640;9.942;2023-02-28T04:51:39;5.40;81.80
15099;DHT22;33900;53.640;9.942;2023-02-28T04:54:05;5.40;82.70
15099;DHT22;33900;53.640;9.942;2023-02-28T04:56:31;5.40;81.90
15099;DHT22;33900;53.640;9.942;2023-02-28T04:58:57;5.30;81.90
15099;DHT22;33900;53.640;9.942;2023-02-28T05:03:48;5.30;82.00
15099;DHT22;33900;53.640;9.942;2023-02-28T05:06:14;5.20;82.10
15099;DHT22;33900;53.640;9.942;2023-02-28T05:08:40;5.20;82.10
15099;DHT22;33900;53.640;9.942;2023-02-28T05:11:06;5.20;82.20
15099;DHT22;33900;53.640;9.942;2023-02-28T05:13:32;5.10;82.10
15099;DHT22;33900;53.640;9.942;2023-02-28T05:15:58;5.10;82.20
15099;DHT22;33900;53.640;9.942;2023-02-28T05:18:23;5.10;82.20
15099;DHT22;33900;53.640;9.942;2023-02-28T05:20:49;5.00;82.20
15099;DHT22;33900;53.640;9.942;2023-02-28T05:23:15;5.00;82.30
15099;DHT22;33900;53.640;9.942;2023-02-28T05:25:41;5.00;82.30
15099;DHT22;33900;53.640;9.942;2023-02-28T05:28:07;5.00;82.40
15099;DHT22;33900;53.640;9.942;2023-02-28T05:30:33;4.90;82.40
15099;DHT22;33900;53.640;9.942;2023-02-28T05:32:58;4.90;82.50
15099;DHT22;33900;53.640;9.942;2023-02-28T05:35:24;4.90;82.50
15099;DHT22;33900;53.640;9.942;2023-02-28T05:37:53;4.80;82.50
15099;DHT22;33900;53.640;9.942;2023-02-28T05:40:19;4.80;82.50
15099;DHT22;33900;53.640;9.942;2023-02-28T05:42:45;4.80;82.60
15099;DHT22;33900;53.640;9.942;2023-02-28T05:45:14;4.80;82.70
15099;DHT22;33900;53.640;9.942;2023-02-28T05:47:39;4.70;82.70
15099;DHT22;33900;53.640;9.942;2023-02-28T05:50:05;4.70;82.70
15099;DHT22;33900;53.640;9.942;2023-02-28T05:52:31;4.70;82.70
15099;DHT22;33900;53.640;9.942;2023-02-28T05:54:58;4.70;82.80
15099;DHT22;33900;53.640;9.942;2023-02-28T05:57:24;4.60;82.80
15099;DHT22;33900;53.640;9.942;2023-02-28T05:59:50;4.60;82.80
15099;DHT22;33900;53.640;9.942;2023-02-28T06:02:16;4.60;82.90
15099;DHT22;33900;53.640;9.942;2023-02-28T06:04:42;4.60;83.70
15099;DHT22;33900;53.640;9.942;2023-02-28T06:07:08;4.50;83.00
15099;DHT22;33900;53.640;9.942;2023-02-28T06:09:34;4.50;83.00
15099;DHT22;33900;53.640;9.942;2023-02-28T06:12:00;4.50;83.00
15099;DHT22;33900;53.640;9.942;2023-02-28T06:14:28;4.50;83.10
15099;DHT22;33900;53.640;9.942;2023-02-28T06:16:54;4.50;83.20
15099;DHT22;33900;53.640;9.942;2023-02-28T06:19:19;4.40;83.20
15099;DHT22;33900;53.640;9.942;2023-02-28T06:21:45;4.40;83.30
15099;DHT22;33900;53.640;9.942;2023-02-28T06:24:14;4.40;83.30
15099;DHT22;33900;53.640;9.942;2023-02-28T06:26:39;4.40;83.40
15099;DHT22;33900;53.640;9.942;2023-02-28T06:29:05;4.40;83.40
15099;DHT22;33900;53.640;9.942;2023-02-28T06:31:31;4.40;83.40
15099;DHT22;33900;53.640;9.942;2023-02-28T06:33:56;4.40;83.50
15099;DHT22;33900;53.640;9.942;2023-02-28T06:36:22;4.40;83.60
15099;DHT22;33900;53.640;9.942;2023-02-28T06:38:48;4.40;83.60
15099;DHT22;33900;53.640;9.942;2023-02-28T06:41:21;4.40;83.60
15099;DHT22;33900;53.640;9.942;2023-02-28T06:43:46;4.40;83.70
15099;DHT22;33900;53.640;9.942;2023-02-28T06:46:13;4.40;83.70
15099;DHT22;33900;53.640;9.942;2023-02-28T06:48:39;4.40;83.80
15099;DHT22;33900;53.640;9.942;2023-02-28T06:51:06;4.40;83.90
15099;DHT22;33900;53.640;9.942;2023-02-28T06:53:32;4.40;83.90
15099;DHT22;33900;53.640;9.942;2023-02-28T06:55:58;4.40;83.90
15099;DHT22;33900;53.640;9.942;2023-02-28T06:58:24;4.40;84.00
15099;DHT22;33900;53.640;9.942;2023-02-28T07:00:50;4.40;84.00
15099;DHT22;33900;53.640;9.942;2023-02-28T07:03:16;4.40;84.10
15099;DHT22;33900;53.640;9.942;2023-02-28T07:05:43;4.40;84.10
15099;DHT22;33900;53.640;9.942;2023-02-28T07:08:08;4.40;84.10
15099;DHT22;33900;53.640;9.942;2023-02-28T07:10:34;4.40;84.20
15099;DHT22;33900;53.640;9.942;2023-02-28T07:13:02;4.40;84.20
15099;DHT22;33900;53.640;9.942;2023-02-28T07:15:28;4.40;84.30
15099;DHT22;33900;53.640;9.942;2023-02-28T07:17:54;4.40;84.40
15099;DHT22;33900;53.640;9.942;2023-02-28T07:20:22;4.40;84.40
15099;DHT22;33900;53.640;9.942;2023-02-28T07:22:51;4.40;84.50
15099;DHT22;33900;53.640;9.942;2023-02-28T07:25:22;4.40;84.50
15099;DHT22;33900;53.640;9.942;2023-02-28T07:27:48;4.40;84.50
15099;DHT22;33900;53.640;9.942;2023-02-28T07:30:13;4.40;84.60
15099;DHT22;33900;53.640;9.942;2023-02-28T07:32:39;4.50;84.70
15099;DHT22;33900;53.640;9.942;2023-02-28T07:35:05;4.50;84.70
15099;DHT22;33900;53.640;9.942;2023-02-28T07:37:31;4.50;84.80
15099;DHT22;33900;53.640;9.942;2023-02-28T07:40:06;4.50;84.80
15099;DHT22;33900;53.640;9.942;2023-02-28T07:42:36;4.60;84.80
15099;DHT22;33900;53.640;9.942;2023-02-28T07:45:04;4.60;84.90
15099;DHT22;33900;53.640;9.942;2023-02-28T07:47:30;4.60;85.00
15099;DHT22;33900;53.640;9.942;2023-02-28T07:49:58;4.60;85.00
15099;DHT22;33900;53.640;9.942;2023-02-28T07:52:23;4.70;85.00
15099;DHT22;33900;53.640;9.942;2023-02-28T07:54:49;4.70;85.00
15099;DHT22;33900;53.640;9.942;2023-02-28T07:57:15;4.70;85.00
15099;DHT22;33900;53.640;9.942;2023-02-28T07:59:41;4.80;85.80
15099;DHT22;33900;53.640;9.942;2023-02-28T08:02:09;4.90;85.00
15099;DHT22;33900;53.640;9.942;2023-02-28T08:04:36;4.90;85.00
15099;DHT22;33900;53.640;9.942;2023-02-28T08:07:04;5.00;85.00
15099;DHT22;33900;53.640;9.942;2023-02-28T08:09:29;5.00;84.90
15099;DHT22;33900;53.640;9.942;2023-02-28T08:11:56;5.10;84.90
15099;DHT22;33900;53.640;9.942;2023-02-28T08:14:22;5.20;84.80
15099;DHT22;33900;53.640;9.942;2023-02-28T08:16:47;5.30;84.80
15099;DHT22;33900;53.640;9.942;2023-02-28T08:19:13;5.30;84.80
15099;DHT22;33900;53.640;9.942;2023-02-28T08:21:39;5.40;84.70
15099;DHT22;33900;53.640;9.942;2023-02-28T08:24:05;5.40;84.70
15099;DHT22;33900;53.640;9.942;2023-02-28T08:26:31;5.50;84.60
15099;DHT22;33900;53.640;9.942;2023-02-28T08:28:57;5.50;84.60
15099;DHT22;33900;53.640;9.942;2023-02-28T08:31:22;5.60;84.60
15099;DHT22;33900;53.640;9.942;2023-02-28T08:33:48;5.60;84.30
15099;DHT22;33900;53.640;9.942;2023-02-28T08:36:16;5.70;84.40
15099;DHT22;33900;53.640;9.942;2023-02-28T08:38:42;5.80;84.40
15099;DHT22;33900;53.640;9.942;2023-02-28T08:41:09;5.80;84.30
15099;DHT22;33900;53.640;9.942;2023-02-28T08:43:36;5.80;84.20
15099;DHT22;33900;53.640;9.942;2023-02-28T08:46:01;5.90;84.20
15099;DHT22;33900;53.640;9.942;2023-02-28T08:48:28;6.00;84.20
15099;DHT22;33900;53.640;9.942;2023-02-28T08:51:01;6.00;84.10
15099;DHT22;33900;53.640;9.942;2023-02-28T08:53:27;6.10;84.20
15099;DHT22;33900;53.640;9.942;2023-02-28T08:55:59;6.20;84.10
15099;DHT22;33900;53.640;9.942;2023-02-28T08:58:25;6.20;84.00
15099;DHT22;33900;53.640;9.942;2023-02-28T09:00:51;6.20;83.90
15099;DHT22;33900;53.640;9.942;2023-02-28T09:03:17;6.30;83.80
15099;DHT22;33900;53.640;9.942;2023-02-28T09:05:56;6.30;83.80
15099;DHT22;33900;53.640;9.942;2023-02-28T09:08:23;6.40;83.80
15099;DHT22;33900;53.640;9.942;2023-02-28T09:10:48;6.40;83.60
15099;DHT22;33900;53.640;9.942;2023-02-28T09:13:14;6.50;83.60
15099;DHT22;33900;53.640;9.942;2023-02-28T09:15:40;6.60;83.60
15099;DHT22;33900;53.640;9.942;2023-02-28T09:18:05;6.60;83.50
15099;DHT22;33900;53.640;9.942;2023-02-28T09:20:31;6.70;83.40
15099;DHT22;33900;53.640;9.942;2023-02-28T09:22:56;6.70;83.20
15099;DHT22;33900;53.640;9.942;2023-02-28T09:25:22;6.80;83.20
15099;DHT22;33900;53.640;9.942;2023-02-28T09:27:48;6.90;83.10
15099;DHT22;33900;53.640;9.942;2023-02-28T09:30:14;6.90;82.90
15099;DHT22;33900;53.640;9.942;2023-02-28T09:32:39;7.00;82.80
15099;DHT22;33900;53.640;9.942;2023-02-28T09:35:05;7.00;82.70
15099;DHT22;33900;53.640;9.942;2023-02-28T09:37:31;7.10;82.50
15099;DHT22;33900;53.640;9.942;2023-02-28T09:39:56;7.10;82.40
15099;DHT22;33900;53.640;9.942;2023-02-28T09:42:30;7.10;81.80
15099;DHT22;33900;53.640;9.942;2023-02-28T09:44:56;7.20;81.70
15099;DHT22;33900;53.640;9.942;2023-02-28T09:49:49;7.30;81.70
15099;DHT22;33900;53.640;9.942;2023-02-28T09:52:17;7.30;81.50
15099;DHT22;33900;53.640;9.942;2023-02-28T09:54:44;7.40;81.00
15099;DHT22;33900;53.640;9.942;2023-02-28T09:57:31;7.50;80.40
15099;DHT22;33900;53.640;9.942;2023-02-28T10:02:52;7.70;80.10
15099;DHT22;33900;53.640;9.942;2023-02-28T10:05:21;7.80;80.10
15099;DHT22;33900;53.640;9.942;2023-02-28T10:08:33;7.90;80.00
15099;DHT22;33900;53.640;9.942;2023-02-28T10:10:39;8.00;80.10
15099;DHT22;33900;53.640;9.942;2023-02-28T10:13:06;8.10;79.70
15099;DHT22;33900;53.640;9.942;2023-02-28T10:15:37;8.20;79.30
15099;DHT22;33900;53.640;9.942;2023-02-28T10:18:04;8.30;78.90
15099;DHT22;33900;53.640;9.942;2023-02-28T10:20:33;8.40;78.30
15099;DHT22;33900;53.640;9.942;2023-02-28T10:23:09;8.50;77.90
15099;DHT22;33900;53.640;9.942;2023-02-28T10:25:37;8.60;77.30
15099;DHT22;33900;53.640;9.942;2023-02-28T10:28:10;8.70;77.90
15099;DHT22;33900;53.640;9.942;2023-02-28T10:30:36;8.90;78.10
15099;DHT22;33900;53.640;9.942;2023-02-28T10:33:03;9.00;77.90
15099;DHT22;33900;53.640;9.942;2023-02-28T10:35:28;9.10;77.50
15099;DHT22;33900;53.640;9.942;2023-02-28T10:37:56;9.10;76.80
15099;DHT22;33900;53.640;9.942;2023-02-28T10:43:01;9.20;76.60
15099;DHT22;33900;53.640;9.942;2023-02-28T10:45:31;9.20;76.10
15099;DHT22;33900;53.640;9.942;2023-02-28T10:47:59;9.30;76.00
15099;DHT22;33900;53.640;9.942;2023-02-28T10:50:29;9.30;76.50
15099;DHT22;33900;53.640;9.942;2023-02-28T10:52:58;9.30;75.30
15099;DHT22;33900;53.640;9.942;2023-02-28T10:55:30;9.40;75.60
15099;DHT22;33900;53.640;9.942;2023-02-28T10:57:56;9.40;75.50
15099;DHT22;33900;53.640;9.942;2023-02-28T11:00:23;9.50;74.10
15099;DHT22;33900;53.640;9.942;2023-02-28T11:02:50;9.50;74.70
15099;DHT22;33900;53.640;9.942;2023-02-28T11:07:52;9.50;75.00
15099;DHT22;33900;53.640;9.942;2023-02-28T11:10:19;9.60;74.50
15099;DHT22;33900;53.640;9.942;2023-02-28T11:12:46;9.60;74.80
15099;DHT22;33900;53.640;9.942;2023-02-28T11:15:21;9.70;74.40
15099;DHT22;33900;53.640;9.942;2023-02-28T11:18:00;9.70;74.00
15099;DHT22;33900;53.640;9.942;2023-02-28T11:20:29;9.80;73.90
15099;DHT22;33900;53.640;9.942;2023-02-28T11:22:55;9.90;74.20
15099;DHT22;33900;53.640;9.942;2023-02-28T11:25:23;9.90;74.30
15099;DHT22;33900;53.640;9.942;2023-02-28T11:27:51;10.00;73.00
15099;DHT22;33900;53.640;9.942;2023-02-28T11:30:24;10.00;73.30
15099;DHT22;33900;53.640;9.942;2023-02-28T11:32:51;10.10;73.70
15099;DHT22;33900;53.640;9.942;2023-02-28T11:35:18;10.10;72.50
15099;DHT22;33900;53.640;9.942;2023-02-28T11:37:47;10.20;72.20
15099;DHT22;33900;53.640;9.942;2023-02-28T11:40:18;10.30;71.90
15099;DHT22;33900;53.640;9.942;2023-02-28T11:42:47;10.40;71.60
15099;DHT22;33900;53.640;9.942;2023-02-28T11:45:19;10.40;71.50
15099;DHT22;33900;53.640;9.942;2023-02-28T11:47:48;10.50;71.50
15099;DHT22;33900;53.640;9.942;2023-02-28T11:52:53;10.60;71.30
15099;DHT22;33900;53.640;9.942;2023-02-28T12:05:56;10.90;69.50
15099;DHT22;33900;53.640;9.942;2023-02-28T12:16:20;11.00;66.60
15099;DHT22;33900;53.640;9.942;2023-02-28T12:21:54;11.10;68.10
15099;DHT22;33900;53.640;9.942;2023-02-28T12:27:07;11.30;67.40
15099;DHT22;33900;53.640;9.942;2023-02-28T12:32:25;11.30;66.20
15099;DHT22;33900;53.640;9.942;2023-02-28T12:34:53;11.40;65.00
15099;DHT22;33900;53.640;9.942;2023-02-28T12:37:22;11.40;63.80
15099;DHT22;33900;53.640;9.942;2023-02-28T12:39:51;11.40;63.90
15099;DHT22;33900;53.640;9.942;2023-02-28T12:44:46;11.60;63.70
15099;DHT22;33900;53.640;9.942;2023-02-28T12:47:16;11.70;63.20
15099;DHT22;33900;53.640;9.942;2023-02-28T12:49:44;11.80;63.10
15099;DHT22;33900;53.640;9.942;2023-02-28T12:52:12;11.80;62.80
15099;DHT22;33900;53.640;9.942;2023-02-28T12:59:51;12.10;61.30
15099;DHT22;33900;53.640;9.942;2023-02-28T13:10:12;12.40;60.30
15099;DHT22;33900;53.640;9.942;2023-02-28T13:12:47;12.50;60.00
15099;DHT22;33900;53.640;9.942;2023-02-28T13:15:17;12.50;59.40
15099;DHT22;33900;53.640;9.942;2023-02-28T13:17:50;12.50;59.00
15099;DHT22;33900;53.640;9.942;2023-02-28T13:22:47;12.60;59.20
15099;DHT22;33900;53.640;9.942;2023-02-28T13:27:48;12.70;59.10
15099;DHT22;33900;53.640;9.942;2023-02-28T13:35:45;12.90;58.80
15099;DHT22;33900;53.640;9.942;2023-02-28T13:38:16;13.00;58.90
15099;DHT22;33900;53.640;9.942;2023-02-28T13:40:42;13.00;59.00
15099;DHT22;33900;53.640;9.942;2023-02-28T13:43:08;13.10;58.20
15099;DHT22;33900;53.640;9.942;2023-02-28T13:45:34;13.00;57.40
15099;DHT22;33900;53.640;9.942;2023-02-28T13:48:04;13.00;57.70
15099;DHT22;33900;53.640;9.942;2023-02-28T14:03:15;13.10;57.50
15099;DHT22;33900;53.640;9.942;2023-02-28T14:05:46;13.10;57.40
15099;DHT22;33900;53.640;9.942;2023-02-28T14:08:16;13.10;57.20
15099;DHT22;33900;53.640;9.942;2023-02-28T14:10:44;13.20;57.40
15099;DHT22;33900;53.640;9.942;2023-02-28T14:21:43;13.20;56.80
15099;DHT22;33900;53.640;9.942;2023-02-28T14:31:42;13.20;56.30
15099;DHT22;33900;53.640;9.942;2023-02-28T14:36:46;13.20;56.70
15099;DHT22;33900;53.640;9.942;2023-02-28T14:39:13;13.20;56.70
15099;DHT22;33900;53.640;9.942;2023-02-28T14:41:40;13.10;56.60
15099;DHT22;33900;53.640;9.942;2023-02-28T14:44:16;13.10;57.10
15099;DHT22;33900;53.640;9.942;2023-02-28T14:46:43;13.10;57.70
15099;DHT22;33900;53.640;9.942;2023-02-28T14:52:13;13.00;57.10
15099;DHT22;33900;53.640;9.942;2023-02-28T14:54:40;12.90;56.80
15099;DHT22;33900;53.640;9.942;2023-02-28T14:57:06;12.90;56.50
15099;DHT22;33900;53.640;9.942;2023-02-28T14:59:45;12.80;56.70
15099;DHT22;33900;53.640;9.942;2023-02-28T15:02:18;12.70;56.50
15099;DHT22;33900;53.640;9.942;2023-02-28T15:04:52;12.70;56.60
15099;DHT22;33900;53.640;9.942;2023-02-28T15:07:17;12.70;57.60
15099;DHT22;33900;53.640;9.942;2023-02-28T15:09:43;12.60;57.20
15099;DHT22;33900;53.640;9.942;2023-02-28T15:12:12;12.50;56.40
15099;DHT22;33900;53.640;9.942;2023-02-28T15:14:42;12.50;57.00
15099;DHT22;33900;53.640;9.942;2023-02-28T15:17:09;12.40;56.80
15099;DHT22;33900;53.640;9.942;2023-02-28T15:19:37;12.30;56.90
15099;DHT22;33900;53.640;9.942;2023-02-28T15:22:07;12.20;57.10
15099;DHT22;33900;53.640;9.942;2023-02-28T15:24:44;12.20;56.90
15099;DHT22;33900;53.640;9.942;2023-02-28T15:27:12;12.10;56.70
15099;DHT22;33900;53.640;9.942;2023-02-28T15:29:43;12.00;57.00
15099;DHT22;33900;53.640;9.942;2023-02-28T15:34:48;11.90;57.10
15099;DHT22;33900;53.640;9.942;2023-02-28T15:40:04;11.70;57.30
15099;DHT22;33900;53.640;9.942;2023-02-28T15:42:30;11.60;57.50
15099;DHT22;33900;53.640;9.942;2023-02-28T15:44:57;11.60;57.70
15099;DHT22;33900;53.640;9.942;2023-02-28T15:47:26;11.60;57.90
15099;DHT22;33900;53.640;9.942;2023-02-28T15:49:53;11.50;58.00
15099;DHT22;33900;53.640;9.942;2023-02-28T15:52:24;11.40;57.60
15099;DHT22;33900;53.640;9.942;2023-02-28T15:54:51;11.40;57.80
15099;DHT22;33900;53.640;9.942;2023-02-28T15:57:18;11.30;58.80
15099;DHT22;33900;53.640;9.942;2023-02-28T15:59:49;11.30;58.90
15099;DHT22;33900;53.640;9.942;2023-02-28T16:02:17;11.20;58.80
15099;DHT22;33900;53.640;9.942;2023-02-28T16:05:00;11.20;59.20
15099;DHT22;33900;53.640;9.942;2023-02-28T16:07:26;11.20;59.00
15099;DHT22;33900;53.640;9.942;2023-02-28T16:09:52;11.10;59.10
15099;DHT22;33900;53.640;9.942;2023-02-28T16:12:18;11.00;59.10
15099;DHT22;33900;53.640;9.942;2023-02-28T16:14:44;11.00;59.40
15099;DHT22;33900;53.640;9.942;2023-02-28T16:17:20;10.90;59.30
15099;DHT22;33900;53.640;9.942;2023-02-28T16:19:46;10.90;59.40
15099;DHT22;33900;53.640;9.942;2023-02-28T16:22:12;10.80;59.80
15099;DHT22;33900;53.640;9.942;2023-02-28T16:24:38;10.80;59.90
15099;DHT22;33900;53.640;9.942;2023-02-28T16:27:04;10.80;59.80
15099;DHT22;33900;53.640;9.942;2023-02-28T16:29:31;10.70;59.80
15099;DHT22;33900;53.640;9.942;2023-02-28T16:31:57;10.60;59.80
15099;DHT22;33900;53.640;9.942;2023-02-28T16:34:24;10.60;60.50
15099;DHT22;33900;53.640;9.942;2023-02-28T16:36:49;10.50;59.80
15099;DHT22;33900;53.640;9.942;2023-02-28T16:39:15;10.50;60.00
15099;DHT22;33900;53.640;9.942;2023-02-28T16:41:44;10.40;60.10
15099;DHT22;33900;53.640;9.942;2023-02-28T16:44:11;10.40;60.20
15099;DHT22;33900;53.640;9.942;2023-02-28T16:46:41;10.30;60.30
15099;DHT22;33900;53.640;9.942;2023-02-28T16:49:10;10.20;60.40
15099;DHT22;33900;53.640;9.942;2023-02-28T16:51:36;10.20;60.50
15099;DHT22;33900;53.640;9.942;2023-02-28T16:54:02;10.20;60.60
15099;DHT22;33900;53.640;9.942;2023-02-28T16:56:27;10.10;60.70
15099;DHT22;33900;53.640;9.942;2023-02-28T16:58:54;10.00;60.80
15099;DHT22;33900;53.640;9.942;2023-02-28T17:01:21;10.00;60.80
15099;DHT22;33900;53.640;9.942;2023-02-28T17:03:49;9.90;60.80
15099;DHT22;33900;53.640;9.942;2023-02-28T17:06:22;9.90;60.90
15099;DHT22;33900;53.640;9.942;2023-02-28T17:08:48;9.80;61.00
15099;DHT22;33900;53.640;9.942;2023-02-28T17:11:15;9.70;61.00
15099;DHT22;33900;53.640;9.942;2023-02-28T17:13:43;9.70;61.20
15099;DHT22;33900;53.640;9.942;2023-02-28T17:18:57;9.60;61.50
15099;DHT22;33900;53.640;9.942;2023-02-28T17:21:23;9.50;61.70
15099;DHT22;33900;53.640;9.942;2023-02-28T17:23:48;9.40;61.70
15099;DHT22;33900;53.640;9.942;2023-02-28T17:26:18;9.40;61.80
15099;DHT22;33900;53.640;9.942;2023-02-28T17:28:48;9.30;62.00
15099;DHT22;33900;53.640;9.942;2023-02-28T17:31:14;9.30;62.20
15099;DHT22;33900;53.640;9.942;2023-02-28T17:33:40;9.20;62.30
15099;DHT22;33900;53.640;9.942;2023-02-28T17:36:06;9.20;62.40
15099;DHT22;33900;53.640;9.942;2023-02-28T17:38:32;9.10;62.60
15099;DHT22;33900;53.640;9.942;2023-02-28T17:40:57;9.10;62.70
15099;DHT22;33900;53.640;9.942;2023-02-28T17:43:24;9.00;62.80
15099;DHT22;33900;53.640;9.942;2023-02-28T17:45:50;9.00;62.90
15099;DHT22;33900;53.640;9.942;2023-02-28T17:48:17;8.90;63.00
15099;DHT22;33900;53.640;9.942;2023-02-28T17:50:42;8.80;63.10
15099;DHT22;33900;53.640;9.942;2023-02-28T17:53:08;8.80;63.10
15099;DHT22;33900;53.640;9.942;2023-02-28T17:55:33;8.70;63.10
15099;DHT22;33900;53.640;9.942;2023-02-28T17:57:59;8.70;63.20
15099;DHT22;33900;53.640;9.942;2023-02-28T18:00:25;8.60;63.30